sensor_id;sensor_type;location;lat;lon;timestamp;pressure;altitude;pressure_sealevel;temperature;humidity
18323;BME280;9287;49.456;11.064;2023-07-13T00:01:23;97949.41;;;22.69;78.69
18323;BME280;9287;49.456;11.064;2023-07-13T00:03:53;97939.50;;;22.68;79.26
18323;BME280;9287;49.456;11.064;2023-07-13T00:06:22;97938.66;;;22.35;80.65
18323;BME280;9287;49.456;11.064;2023-07-13T00:08:50;97935.28;;;22.28;82.41
18323;BME280;9287;49.456;11.064;2023-07-13T00:11:20;97926.50;;;22.29;81.48
18323;BME280;9287;49.456;11.064;2023-07-13T00:13:49;97910.41;;;22.37;80.84
18323;BME280;9287;49.456;11.064;2023-07-13T00:16:19;97907.47;;;22.44;81.90
18323;BME280;9287;49.456;11.064;2023-07-13T00:18:47;97907.34;;;22.67;79.14
18323;BME280;9287;49.456;11.064;2023-07-13T00:21:19;97906.44;;;22.70;78.82
18323;BME280;9287;49.456;11.064;2023-07-13T00:23:51;97914.53;;;22.65;79.93
18323;BME280;9287;49.456;11.064;2023-07-13T00:26:21;97903.91;;;22.43;80.29
18323;BME280;9287;49.456;11.064;2023-07-13T00:28:49;97903.66;;;22.54;80.12
18323;BME280;9287;49.456;11.064;2023-07-13T00:31:20;97901.06;;;22.63;79.70
18323;BME280;9287;49.456;11.064;2023-07-13T00:33:53;97912.75;;;22.38;80.42
18323;BME280;9287;49.456;11.064;2023-07-13T00:36:24;97913.03;;;22.44;80.68
18323;BME280;9287;49.456;11.064;2023-07-13T00:38:57;97913.22;;;22.53;80.21
18323;BME280;9287;49.456;11.064;2023-07-13T00:41:25;97924.69;;;22.39;80.41
18323;BME280;9287;49.456;11.064;2023-07-13T00:43:54;97919.13;;;22.39;81.71
18323;BME280;9287;49.456;11.064;2023-07-13T00:46:33;97930.03;;;22.13;82.58
18323;BME280;9287;49.456;11.064;2023-07-13T00:49:05;97936.06;;;22.28;82.59
18323;BME280;9287;49.456;11.064;2023-07-13T00:51:42;97942.03;;;22.27;82.99
18323;BME280;9287;49.456;11.064;2023-07-13T00:54:17;97949.69;;;22.22;81.86
18323;BME280;9287;49.456;11.064;2023-07-13T00:56:51;97948.34;;;22.11;82.07
18323;BME280;9287;49.456;11.064;2023-07-13T00:59:21;97954.03;;;22.23;81.42
18323;BME280;9287;49.456;11.064;2023-07-13T01:01:51;97955.44;;;22.32;81.66
18323;BME280;9287;49.456;11.064;2023-07-13T01:04:26;97945.31;;;22.21;81.20
18323;BME280;9287;49.456;11.064;2023-07-13T01:06:56;97947.88;;;22.32;80.86
18323;BME280;9287;49.456;11.064;2023-07-13T01:09:27;97938.63;;;21.99;82.20
18323;BME280;9287;49.456;11.064;2023-07-13T01:11:56;97940.44;;;22.09;80.54
18323;BME280;9287;49.456;11.064;2023-07-13T01:14:31;97936.63;;;22.19;80.98
18323;BME280;9287;49.456;11.064;2023-07-13T01:16:59;97937.38;;;22.04;82.95
18323;BME280;9287;49.456;11.064;2023-07-13T01:19:35;97929.72;;;21.88;82.84
18323;BME280;9287;49.456;11.064;2023-07-13T01:22:10;97921.03;;;21.86;83.47
18323;BME280;9287;49.456;11.064;2023-07-13T01:24:40;97927.19;;;21.77;84.06
18323;BME280;9287;49.456;11.064;2023-07-13T01:27:14;97944.63;;;21.58;86.60
18323;BME280;9287;49.456;11.064;2023-07-13T01:29:44;97944.19;;;21.60;85.68
18323;BME280;9287;49.456;11.064;2023-07-13T01:32:16;97939.84;;;21.59;86.84
18323;BME280;9287;49.456;11.064;2023-07-13T01:34:50;97929.09;;;21.61;86.54
18323;BME280;9287;49.456;11.064;2023-07-13T01:37:22;97940.81;;;21.48;87.30
18323;BME280;9287;49.456;11.064;2023-07-13T01:39:50;97936.63;;;21.40;88.25
18323;BME280;9287;49.456;11.064;2023-07-13T01:42:18;97933.00;;;21.43;87.16
18323;BME280;9287;49.456;11.064;2023-07-13T01:44:46;97928.41;;;21.33;86.89
18323;BME280;9287;49.456;11.064;2023-07-13T01:47:14;97925.16;;;21.38;85.53
18323;BME280;9287;49.456;11.064;2023-07-13T01:49:42;97924.88;;;21.52;84.71
18323;BME280;9287;49.456;11.064;2023-07-13T01:52:12;97919.66;;;21.35;85.19
18323;BME280;9287;49.456;11.064;2023-07-13T01:54:41;97924.47;;;21.54;83.09
18323;BME280;9287;49.456;11.064;2023-07-13T01:57:09;97934.22;;;21.42;83.97
18323;BME280;9287;49.456;11.064;2023-07-13T01:59:36;97939.53;;;21.33;84.41
18323;BME280;9287;49.456;11.064;2023-07-13T02:02:04;97935.69;;;21.27;83.54
18323;BME280;9287;49.456;11.064;2023-07-13T02:04:34;97937.81;;;21.16;83.91
18323;BME280;9287;49.456;11.064;2023-07-13T02:07:02;97941.22;;;21.04;85.54
18323;BME280;9287;49.456;11.064;2023-07-13T02:09:30;97947.09;;;21.09;85.21
18323;BME280;9287;49.456;11.064;2023-07-13T02:11:59;97941.00;;;20.95;86.85
18323;BME280;9287;49.456;11.064;2023-07-13T02:14:27;97942.06;;;20.77;88.74
18323;BME280;9287;49.456;11.064;2023-07-13T02:16:54;97933.28;;;20.79;90.21
18323;BME280;9287;49.456;11.064;2023-07-13T02:19:22;97937.34;;;20.74;90.76
18323;BME280;9287;49.456;11.064;2023-07-13T02:21:50;97933.00;;;20.73;91.20
18323;BME280;9287;49.456;11.064;2023-07-13T02:24:17;97938.28;;;20.64;92.99
18323;BME280;9287;49.456;11.064;2023-07-13T02:26:47;97940.50;;;20.76;92.05
18323;BME280;9287;49.456;11.064;2023-07-13T02:29:20;97936.28;;;20.92;89.21
18323;BME280;9287;49.456;11.064;2023-07-13T02:31:48;97931.81;;;20.74;89.07
18323;BME280;9287;49.456;11.064;2023-07-13T02:34:16;97938.31;;;20.88;89.21
18323;BME280;9287;49.456;11.064;2023-07-13T02:36:43;97944.84;;;21.01;87.79
18323;BME280;9287;49.456;11.064;2023-07-13T02:39:12;97941.34;;;20.73;88.61
18323;BME280;9287;49.456;11.064;2023-07-13T02:41:40;97942.41;;;20.56;90.84
18323;BME280;9287;49.456;11.064;2023-07-13T02:44:08;97945.72;;;20.44;91.39
18323;BME280;9287;49.456;11.064;2023-07-13T02:46:37;97947.28;;;20.45;91.83
18323;BME280;9287;49.456;11.064;2023-07-13T02:49:05;97952.00;;;20.48;88.71
18323;BME280;9287;49.456;11.064;2023-07-13T02:51:33;97949.78;;;20.36;89.55
18323;BME280;9287;49.456;11.064;2023-07-13T02:54:01;97951.50;;;20.26;90.86
18323;BME280;9287;49.456;11.064;2023-07-13T02:56:31;97964.84;;;20.35;89.31
18323;BME280;9287;49.456;11.064;2023-07-13T02:58:59;97964.69;;;20.49;87.54
18323;BME280;9287;49.456;11.064;2023-07-13T03:01:26;97963.22;;;20.41;88.46
18323;BME280;9287;49.456;11.064;2023-07-13T03:03:55;97966.72;;;20.14;89.70
18323;BME280;9287;49.456;11.064;2023-07-13T03:06:23;97963.50;;;20.20;90.58
18323;BME280;9287;49.456;11.064;2023-07-13T03:08:51;97975.81;;;20.45;85.40
18323;BME280;9287;49.456;11.064;2023-07-13T03:11:20;97979.91;;;20.34;86.69
18323;BME280;9287;49.456;11.064;2023-07-13T03:13:48;97971.81;;;20.50;84.16
18323;BME280;9287;49.456;11.064;2023-07-13T03:16:16;97982.91;;;20.50;82.53
18323;BME280;9287;49.456;11.064;2023-07-13T03:18:45;97974.31;;;20.41;83.76
18323;BME280;9287;49.456;11.064;2023-07-13T03:21:15;97995.75;;;20.37;82.69
18323;BME280;9287;49.456;11.064;2023-07-13T03:23:43;97985.75;;;20.12;84.88
18323;BME280;9287;49.456;11.064;2023-07-13T03:26:13;97994.88;;;20.09;84.89
18323;BME280;9287;49.456;11.064;2023-07-13T03:28:41;98005.69;;;20.00;85.25
18323;BME280;9287;49.456;11.064;2023-07-13T03:31:12;97998.41;;;20.13;84.01
18323;BME280;9287;49.456;11.064;2023-07-13T03:33:40;98005.44;;;19.91;85.81
18323;BME280;9287;49.456;11.064;2023-07-13T03:36:13;98004.94;;;19.96;85.86
18323;BME280;9287;49.456;11.064;2023-07-13T03:38:44;98020.59;;;20.13;83.04
18323;BME280;9287;49.456;11.064;2023-07-13T03:41:12;98017.44;;;20.11;82.50
18323;BME280;9287;49.456;11.064;2023-07-13T03:43:40;98017.19;;;19.65;85.18
18323;BME280;9287;49.456;11.064;2023-07-13T03:46:11;98022.19;;;19.77;84.90
18323;BME280;9287;49.456;11.064;2023-07-13T03:48:40;98021.16;;;19.64;86.36
18323;BME280;9287;49.456;11.064;2023-07-13T03:51:09;98018.47;;;19.57;86.24
18323;BME280;9287;49.456;11.064;2023-07-13T03:53:38;98023.69;;;19.44;87.15
18323;BME280;9287;49.456;11.064;2023-07-13T03:56:08;98020.47;;;19.53;86.08
18323;BME280;9287;49.456;11.064;2023-07-13T03:58:38;98022.44;;;19.56;84.87
18323;BME280;9287;49.456;11.064;2023-07-13T04:01:07;98031.41;;;19.67;82.90
18323;BME280;9287;49.456;11.064;2023-07-13T04:03:36;98027.63;;;19.46;84.14
18323;BME280;9287;49.456;11.064;2023-07-13T04:06:08;98041.91;;;19.41;83.81
18323;BME280;9287;49.456;11.064;2023-07-13T04:08:54;98048.78;;;19.71;81.55
18323;BME280;9287;49.456;11.064;2023-07-13T04:11:30;98059.06;;;19.70;80.94
18323;BME280;9287;49.456;11.064;2023-07-13T04:13:59;98059.78;;;19.78;80.55
18323;BME280;9287;49.456;11.064;2023-07-13T04:16:28;98064.69;;;19.60;79.57
18323;BME280;9287;49.456;11.064;2023-07-13T04:18:58;98060.91;;;19.84;78.77
18323;BME280;9287;49.456;11.064;2023-07-13T04:21:28;98051.75;;;19.91;77.52
18323;BME280;9287;49.456;11.064;2023-07-13T04:23:56;98047.06;;;19.84;78.16
18323;BME280;9287;49.456;11.064;2023-07-13T04:26:24;98047.44;;;19.86;78.46
18323;BME280;9287;49.456;11.064;2023-07-13T04:28:53;98047.28;;;19.63;79.69
18323;BME280;9287;49.456;11.064;2023-07-13T04:31:22;98053.41;;;19.81;78.75
18323;BME280;9287;49.456;11.064;2023-07-13T04:33:53;98057.41;;;19.76;79.95
18323;BME280;9287;49.456;11.064;2023-07-13T04:36:24;98059.16;;;19.60;81.10
18323;BME280;9287;49.456;11.064;2023-07-13T04:38:56;98060.53;;;19.82;79.90
18323;BME280;9287;49.456;11.064;2023-07-13T04:41:27;98061.13;;;20.00;77.62
18323;BME280;9287;49.456;11.064;2023-07-13T04:44:00;98072.34;;;19.90;78.60
18323;BME280;9287;49.456;11.064;2023-07-13T04:46:29;98066.88;;;19.79;79.60
18323;BME280;9287;49.456;11.064;2023-07-13T04:48:57;98069.66;;;19.79;79.61
18323;BME280;9287;49.456;11.064;2023-07-13T04:51:25;98071.75;;;19.68;80.55
18323;BME280;9287;49.456;11.064;2023-07-13T04:53:54;98064.16;;;19.75;79.97
18323;BME280;9287;49.456;11.064;2023-07-13T04:56:26;98071.06;;;19.98;78.98
18323;BME280;9287;49.456;11.064;2023-07-13T04:58:59;98072.22;;;20.00;78.41
18323;BME280;9287;49.456;11.064;2023-07-13T05:01:30;98076.81;;;20.14;75.24
18323;BME280;9287;49.456;11.064;2023-07-13T05:03:59;98078.72;;;20.21;74.79
18323;BME280;9287;49.456;11.064;2023-07-13T05:06:27;98090.19;;;20.23;74.31
18323;BME280;9287;49.456;11.064;2023-07-13T05:08:58;98086.91;;;20.31;74.41
18323;BME280;9287;49.456;11.064;2023-07-13T05:11:26;98096.84;;;20.29;73.28
18323;BME280;9287;49.456;11.064;2023-07-13T05:13:54;98088.84;;;20.00;75.85
18323;BME280;9287;49.456;11.064;2023-07-13T05:16:24;98093.63;;;19.96;77.68
18323;BME280;9287;49.456;11.064;2023-07-13T05:18:52;98091.03;;;20.16;73.81
18323;BME280;9287;49.456;11.064;2023-07-13T05:21:20;98103.97;;;19.92;76.01
18323;BME280;9287;49.456;11.064;2023-07-13T05:23:50;98091.78;;;19.86;78.31
18323;BME280;9287;49.456;11.064;2023-07-13T05:26:18;98103.94;;;19.96;76.15
18323;BME280;9287;49.456;11.064;2023-07-13T05:28:47;98102.69;;;20.00;76.99
18323;BME280;9287;49.456;11.064;2023-07-13T05:31:18;98113.78;;;20.00;75.49
18323;BME280;9287;49.456;11.064;2023-07-13T05:33:50;98102.69;;;20.41;75.63
18323;BME280;9287;49.456;11.064;2023-07-13T05:36:18;98099.53;;;20.36;74.51
18323;BME280;9287;49.456;11.064;2023-07-13T05:38:46;98094.41;;;20.68;72.91
18323;BME280;9287;49.456;11.064;2023-07-13T05:41:14;98100.03;;;20.61;71.15
18323;BME280;9287;49.456;11.064;2023-07-13T05:43:42;98111.13;;;20.61;72.65
18323;BME280;9287;49.456;11.064;2023-07-13T05:46:10;98106.44;;;20.58;71.14
18323;BME280;9287;49.456;11.064;2023-07-13T05:48:38;98106.03;;;20.87;69.81
18323;BME280;9287;49.456;11.064;2023-07-13T05:51:07;98113.38;;;20.73;69.22
18323;BME280;9287;49.456;11.064;2023-07-13T05:53:35;98111.78;;;20.72;70.22
18323;BME280;9287;49.456;11.064;2023-07-13T05:56:03;98117.88;;;20.91;68.45
18323;BME280;9287;49.456;11.064;2023-07-13T05:58:34;98120.38;;;20.81;69.63
18323;BME280;9287;49.456;11.064;2023-07-13T06:01:04;98120.19;;;20.96;68.72
18323;BME280;9287;49.456;11.064;2023-07-13T06:03:36;98117.88;;;20.91;67.68
18323;BME280;9287;49.456;11.064;2023-07-13T06:06:07;98110.66;;;20.97;66.86
18323;BME280;9287;49.456;11.064;2023-07-13T06:08:36;98125.69;;;20.99;67.91
18323;BME280;9287;49.456;11.064;2023-07-13T06:11:05;98123.47;;;21.14;66.05
18323;BME280;9287;49.456;11.064;2023-07-13T06:13:34;98123.16;;;21.12;65.00
18323;BME280;9287;49.456;11.064;2023-07-13T06:16:03;98123.63;;;20.76;66.19
18323;BME280;9287;49.456;11.064;2023-07-13T06:18:32;98127.97;;;20.77;66.00
18323;BME280;9287;49.456;11.064;2023-07-13T06:21:01;98123.63;;;20.76;66.86
18323;BME280;9287;49.456;11.064;2023-07-13T06:23:30;98129.63;;;21.02;65.62
18323;BME280;9287;49.456;11.064;2023-07-13T06:25:58;98129.16;;;21.07;65.05
18323;BME280;9287;49.456;11.064;2023-07-13T06:28:25;98138.09;;;21.18;65.32
18323;BME280;9287;49.456;11.064;2023-07-13T06:30:54;98135.47;;;21.38;64.23
18323;BME280;9287;49.456;11.064;2023-07-13T06:33:22;98128.31;;;21.64;61.42
18323;BME280;9287;49.456;11.064;2023-07-13T06:35:50;98132.78;;;21.58;61.30
18323;BME280;9287;49.456;11.064;2023-07-13T06:38:18;98138.28;;;21.61;60.80
18323;BME280;9287;49.456;11.064;2023-07-13T06:40:47;98145.59;;;21.48;62.02
18323;BME280;9287;49.456;11.064;2023-07-13T06:43:15;98147.34;;;21.38;62.60
18323;BME280;9287;49.456;11.064;2023-07-13T06:45:44;98147.25;;;21.45;63.35
18323;BME280;9287;49.456;11.064;2023-07-13T06:48:14;98150.59;;;21.33;63.90
18323;BME280;9287;49.456;11.064;2023-07-13T06:50:42;98154.50;;;21.39;64.09
18323;BME280;9287;49.456;11.064;2023-07-13T06:53:11;98159.09;;;21.49;63.65
18323;BME280;9287;49.456;11.064;2023-07-13T06:55:39;98157.72;;;21.61;62.82
18323;BME280;9287;49.456;11.064;2023-07-13T06:58:08;98157.41;;;21.56;63.22
18323;BME280;9287;49.456;11.064;2023-07-13T07:00:36;98155.00;;;21.58;63.17
18323;BME280;9287;49.456;11.064;2023-07-13T07:03:06;98165.00;;;21.51;63.00
18323;BME280;9287;49.456;11.064;2023-07-13T07:05:35;98161.06;;;21.76;62.41
18323;BME280;9287;49.456;11.064;2023-07-13T07:08:03;98165.31;;;22.07;61.69
18323;BME280;9287;49.456;11.064;2023-07-13T07:10:31;98163.91;;;22.39;59.35
18323;BME280;9287;49.456;11.064;2023-07-13T07:12:59;98163.00;;;22.45;59.76
18323;BME280;9287;49.456;11.064;2023-07-13T07:15:28;98165.50;;;22.40;56.72
18323;BME280;9287;49.456;11.064;2023-07-13T07:17:55;98168.50;;;22.49;55.47
18323;BME280;9287;49.456;11.064;2023-07-13T07:20:23;98173.88;;;22.79;55.30
18323;BME280;9287;49.456;11.064;2023-07-13T07:22:51;98175.06;;;22.39;55.56
18323;BME280;9287;49.456;11.064;2023-07-13T07:25:19;98183.72;;;22.64;54.81
18323;BME280;9287;49.456;11.064;2023-07-13T07:27:47;98184.66;;;22.77;54.88
18323;BME280;9287;49.456;11.064;2023-07-13T07:30:18;98183.91;;;23.13;52.75
18323;BME280;9287;49.456;11.064;2023-07-13T07:32:50;98183.28;;;23.05;52.75
18323;BME280;9287;49.456;11.064;2023-07-13T07:35:23;98188.38;;;23.63;51.57
18323;BME280;9287;49.456;11.064;2023-07-13T07:37:50;98190.16;;;25.84;45.30
18323;BME280;9287;49.456;11.064;2023-07-13T07:40:18;98190.47;;;26.81;42.27
18323;BME280;9287;49.456;11.064;2023-07-13T07:42:49;98190.84;;;26.48;42.52
18323;BME280;9287;49.456;11.064;2023-07-13T07:45:17;98190.69;;;25.16;44.55
18323;BME280;9287;49.456;11.064;2023-07-13T07:47:45;98189.84;;;24.61;46.80
18323;BME280;9287;49.456;11.064;2023-07-13T07:50:15;98201.78;;;24.16;47.90
18323;BME280;9287;49.456;11.064;2023-07-13T07:52:43;98191.66;;;26.23;43.07
18323;BME280;9287;49.456;11.064;2023-07-13T07:55:13;98201.84;;;28.10;39.05
18323;BME280;9287;49.456;11.064;2023-07-13T07:57:44;98206.34;;;27.58;39.16
18323;BME280;9287;49.456;11.064;2023-07-13T08:00:15;98206.69;;;27.60;38.44
18323;BME280;9287;49.456;11.064;2023-07-13T08:02:47;98206.88;;;28.24;37.09
18323;BME280;9287;49.456;11.064;2023-07-13T08:05:19;98209.41;;;29.98;34.58
18323;BME280;9287;49.456;11.064;2023-07-13T08:08:04;98199.19;;;31.40;32.08
18323;BME280;9287;49.456;11.064;2023-07-13T08:10:35;98199.06;;;33.52;29.13
18323;BME280;9287;49.456;11.064;2023-07-13T08:13:02;98196.97;;;32.95;29.20
18323;BME280;9287;49.456;11.064;2023-07-13T08:15:33;98195.75;;;33.53;28.46
18323;BME280;9287;49.456;11.064;2023-07-13T08:18:01;98206.13;;;35.35;26.83
18323;BME280;9287;49.456;11.064;2023-07-13T08:20:30;98194.97;;;35.03;25.85
18323;BME280;9287;49.456;11.064;2023-07-13T08:22:58;98204.06;;;35.41;25.58
18323;BME280;9287;49.456;11.064;2023-07-13T08:25:26;98211.03;;;35.40;25.63
18323;BME280;9287;49.456;11.064;2023-07-13T08:27:54;98212.03;;;33.64;26.55
18323;BME280;9287;49.456;11.064;2023-07-13T08:30:22;98210.41;;;31.99;27.74
18323;BME280;9287;49.456;11.064;2023-07-13T08:32:50;98215.91;;;34.46;25.14
18323;BME280;9287;49.456;11.064;2023-07-13T08:35:18;98220.44;;;33.53;25.20
18323;BME280;9287;49.456;11.064;2023-07-13T08:37:47;98215.25;;;33.77;24.94
18323;BME280;9287;49.456;11.064;2023-07-13T08:40:24;98210.75;;;35.27;24.03
18323;BME280;9287;49.456;11.064;2023-07-13T08:42:54;98209.38;;;34.83;23.62
18323;BME280;9287;49.456;11.064;2023-07-13T08:45:30;98207.38;;;33.61;23.02
18323;BME280;9287;49.456;11.064;2023-07-13T08:48:03;98216.38;;;34.93;23.01
18323;BME280;9287;49.456;11.064;2023-07-13T08:50:35;98211.97;;;36.37;22.49
18323;BME280;9287;49.456;11.064;2023-07-13T08:53:32;98216.97;;;35.98;23.27
18323;BME280;9287;49.456;11.064;2023-07-13T08:56:02;98224.75;;;35.80;23.06
18323;BME280;9287;49.456;11.064;2023-07-13T08:58:32;98229.28;;;34.94;24.22
18323;BME280;9287;49.456;11.064;2023-07-13T09:01:08;98222.66;;;34.12;23.92
18323;BME280;9287;49.456;11.064;2023-07-13T09:03:43;98226.13;;;33.84;25.05
18323;BME280;9287;49.456;11.064;2023-07-13T09:06:14;98240.06;;;33.31;25.57
18323;BME280;9287;49.456;11.064;2023-07-13T09:08:56;98223.44;;;35.53;23.13
18323;BME280;9287;49.456;11.064;2023-07-13T09:11:43;98223.63;;;35.16;23.55
18323;BME280;9287;49.456;11.064;2023-07-13T09:14:32;98224.63;;;35.02;23.57
18323;BME280;9287;49.456;11.064;2023-07-13T09:17:03;98225.66;;;34.99;23.32
18323;BME280;9287;49.456;11.064;2023-07-13T09:19:33;98226.31;;;34.18;24.93
18323;BME280;9287;49.456;11.064;2023-07-13T09:22:03;98231.25;;;34.77;23.68
18323;BME280;9287;49.456;11.064;2023-07-13T09:24:38;98243.16;;;34.81;23.63
18323;BME280;9287;49.456;11.064;2023-07-13T09:27:13;98237.19;;;34.25;23.55
18323;BME280;9287;49.456;11.064;2023-07-13T09:29:48;98239.75;;;34.23;24.26
18323;BME280;9287;49.456;11.064;2023-07-13T09:32:18;98231.97;;;35.48;22.99
18323;BME280;9287;49.456;11.064;2023-07-13T09:34:52;98237.38;;;34.59;23.37
18323;BME280;9287;49.456;11.064;2023-07-13T09:37:21;98230.16;;;34.15;24.05
18323;BME280;9287;49.456;11.064;2023-07-13T09:39:55;98235.00;;;34.46;23.02
18323;BME280;9287;49.456;11.064;2023-07-13T09:42:25;98221.53;;;33.93;23.45
18323;BME280;9287;49.456;11.064;2023-07-13T09:44:56;98230.97;;;34.69;23.05
18323;BME280;9287;49.456;11.064;2023-07-13T09:47:28;98225.84;;;32.38;24.21
18323;BME280;9287;49.456;11.064;2023-07-13T09:49:58;98229.94;;;30.70;25.93
18323;BME280;9287;49.456;11.064;2023-07-13T09:52:40;98212.09;;;31.76;25.34
18323;BME280;9287;49.456;11.064;2023-07-13T09:55:25;98218.38;;;31.65;25.42
18323;BME280;9287;49.456;11.064;2023-07-13T09:57:53;98224.34;;;31.88;25.70
18323;BME280;9287;49.456;11.064;2023-07-13T10:00:24;98226.66;;;30.86;26.21
18323;BME280;9287;49.456;11.064;2023-07-13T10:03:01;98216.72;;;30.52;26.99
18323;BME280;9287;49.456;11.064;2023-07-13T10:05:41;98229.31;;;30.18;27.03
18323;BME280;9287;49.456;11.064;2023-07-13T10:08:17;98233.31;;;29.69;27.73
18323;BME280;9287;49.456;11.064;2023-07-13T10:10:52;98219.78;;;29.83;27.51
18323;BME280;9287;49.456;11.064;2023-07-13T10:13:34;98211.63;;;28.82;27.82
18323;BME280;9287;49.456;11.064;2023-07-13T10:16:04;98228.56;;;30.18;27.77
18323;BME280;9287;49.456;11.064;2023-07-13T10:18:39;98221.09;;;30.53;27.49
18323;BME280;9287;49.456;11.064;2023-07-13T10:21:16;98220.84;;;30.27;27.28
18323;BME280;9287;49.456;11.064;2023-07-13T10:23:50;98223.09;;;30.14;27.64
18323;BME280;9287;49.456;11.064;2023-07-13T10:26:22;98234.00;;;30.69;27.31
18323;BME280;9287;49.456;11.064;2023-07-13T10:28:54;98227.56;;;30.30;27.22
18323;BME280;9287;49.456;11.064;2023-07-13T10:31:24;98236.16;;;29.60;27.61
18323;BME280;9287;49.456;11.064;2023-07-13T10:33:52;98237.50;;;28.68;28.95
18323;BME280;9287;49.456;11.064;2023-07-13T10:36:28;98240.69;;;30.00;27.87
18323;BME280;9287;49.456;11.064;2023-07-13T10:39:00;98239.78;;;29.94;27.90
18323;BME280;9287;49.456;11.064;2023-07-13T10:41:40;98238.84;;;29.88;27.97
18323;BME280;9287;49.456;11.064;2023-07-13T10:44:18;98242.44;;;29.37;28.09
18323;BME280;9287;49.456;11.064;2023-07-13T10:46:48;98238.41;;;28.19;29.72
18323;BME280;9287;49.456;11.064;2023-07-13T10:49:17;98238.63;;;27.32;30.66
18323;BME280;9287;49.456;11.064;2023-07-13T10:51:46;98244.31;;;26.85;31.26
18323;BME280;9287;49.456;11.064;2023-07-13T10:54:20;98235.63;;;27.04;30.71
18323;BME280;9287;49.456;11.064;2023-07-13T10:57:10;98235.31;;;28.35;29.98
18323;BME280;9287;49.456;11.064;2023-07-13T10:59:46;98238.44;;;28.92;29.33
18323;BME280;9287;49.456;11.064;2023-07-13T11:02:22;98229.31;;;29.34;29.00
18323;BME280;9287;49.456;11.064;2023-07-13T11:04:53;98230.94;;;28.62;29.67
18323;BME280;9287;49.456;11.064;2023-07-13T11:07:23;98228.84;;;27.67;31.43
18323;BME280;9287;49.456;11.064;2023-07-13T11:09:52;98230.94;;;26.67;32.48
18323;BME280;9287;49.456;11.064;2023-07-13T11:12:49;98226.72;;;26.84;32.11
18323;BME280;9287;49.456;11.064;2023-07-13T11:15:31;98228.28;;;26.85;32.23
18323;BME280;9287;49.456;11.064;2023-07-13T11:18:03;98229.00;;;27.42;31.95
18323;BME280;9287;49.456;11.064;2023-07-13T11:20:37;98221.88;;;27.50;31.42
18323;BME280;9287;49.456;11.064;2023-07-13T11:23:27;98228.63;;;27.93;31.11
18323;BME280;9287;49.456;11.064;2023-07-13T11:25:57;98225.94;;;27.89;31.33
18323;BME280;9287;49.456;11.064;2023-07-13T11:28:30;98210.84;;;27.25;31.75
18323;BME280;9287;49.456;11.064;2023-07-13T11:33:54;98209.66;;;28.15;30.74
18323;BME280;9287;49.456;11.064;2023-07-13T11:36:29;98211.81;;;28.11;30.79
18323;BME280;9287;49.456;11.064;2023-07-13T11:39:01;98203.72;;;28.04;30.15
18323;BME280;9287;49.456;11.064;2023-07-13T11:41:32;98202.16;;;28.12;30.18
18323;BME280;9287;49.456;11.064;2023-07-13T11:44:13;98198.06;;;27.86;30.35
18323;BME280;9287;49.456;11.064;2023-07-13T11:46:46;98204.81;;;28.16;30.73
18323;BME280;9287;49.456;11.064;2023-07-13T11:49:19;98202.44;;;27.96;30.38
18323;BME280;9287;49.456;11.064;2023-07-13T11:51:51;98190.88;;;27.23;30.58
18323;BME280;9287;49.456;11.064;2023-07-13T11:54:27;98203.75;;;27.42;31.39
18323;BME280;9287;49.456;11.064;2023-07-13T11:56:59;98207.72;;;27.94;30.40
18323;BME280;9287;49.456;11.064;2023-07-13T11:59:30;98207.25;;;27.55;30.70
18323;BME280;9287;49.456;11.064;2023-07-13T12:02:00;98204.88;;;27.76;30.91
18323;BME280;9287;49.456;11.064;2023-07-13T12:04:32;98213.16;;;28.47;31.18
18323;BME280;9287;49.456;11.064;2023-07-13T12:07:04;98204.84;;;27.66;32.13
18323;BME280;9287;49.456;11.064;2023-07-13T12:09:33;98219.94;;;27.38;32.81
18323;BME280;9287;49.456;11.064;2023-07-13T12:12:07;98208.78;;;26.94;33.56
18323;BME280;9287;49.456;11.064;2023-07-13T12:14:39;98209.94;;;27.28;33.28
18323;BME280;9287;49.456;11.064;2023-07-13T12:17:18;98217.09;;;27.29;32.64
18323;BME280;9287;49.456;11.064;2023-07-13T12:19:48;98211.28;;;27.54;32.89
18323;BME280;9287;49.456;11.064;2023-07-13T12:22:17;98217.09;;;27.29;32.38
18323;BME280;9287;49.456;11.064;2023-07-13T12:24:47;98204.91;;;27.85;31.96
18323;BME280;9287;49.456;11.064;2023-07-13T12:27:20;98212.41;;;27.88;32.10
18323;BME280;9287;49.456;11.064;2023-07-13T12:29:51;98203.06;;;28.00;32.16
18323;BME280;9287;49.456;11.064;2023-07-13T12:32:21;98207.34;;;27.73;32.09
18323;BME280;9287;49.456;11.064;2023-07-13T12:34:52;98205.31;;;27.43;32.98
18323;BME280;9287;49.456;11.064;2023-07-13T12:37:20;98203.19;;;27.56;32.68
18323;BME280;9287;49.456;11.064;2023-07-13T12:39:49;98206.16;;;27.22;33.02
18323;BME280;9287;49.456;11.064;2023-07-13T12:42:20;98202.38;;;26.72;33.89
18323;BME280;9287;49.456;11.064;2023-07-13T12:44:53;98197.41;;;26.54;34.35
18323;BME280;9287;49.456;11.064;2023-07-13T12:47:21;98199.50;;;26.63;34.00
18323;BME280;9287;49.456;11.064;2023-07-13T12:49:53;98201.50;;;26.84;34.17
18323;BME280;9287;49.456;11.064;2023-07-13T12:52:24;98206.31;;;26.96;33.65
18323;BME280;9287;49.456;11.064;2023-07-13T12:54:58;98198.47;;;26.48;33.89
18323;BME280;9287;49.456;11.064;2023-07-13T12:57:32;98196.22;;;26.43;34.31
18323;BME280;9287;49.456;11.064;2023-07-13T13:00:03;98200.63;;;26.18;34.65
18323;BME280;9287;49.456;11.064;2023-07-13T13:02:33;98200.94;;;26.33;34.41
18323;BME280;9287;49.456;11.064;2023-07-13T13:05:03;98196.63;;;26.54;34.86
18323;BME280;9287;49.456;11.064;2023-07-13T13:07:32;98199.22;;;26.70;33.77
18323;BME280;9287;49.456;11.064;2023-07-13T13:10:00;98195.53;;;27.48;34.26
18323;BME280;9287;49.456;11.064;2023-07-13T13:12:28;98182.78;;;27.87;33.56
18323;BME280;9287;49.456;11.064;2023-07-13T13:14:59;98188.72;;;27.98;32.42
18323;BME280;9287;49.456;11.064;2023-07-13T13:17:30;98188.47;;;27.34;33.01
18323;BME280;9287;49.456;11.064;2023-07-13T13:19:59;98196.22;;;27.30;33.21
18323;BME280;9287;49.456;11.064;2023-07-13T13:22:27;98190.78;;;27.04;33.79